createdAt,value
2022-07-27T00:00:10.869Z,4.30
2022-07-27T00:02:52.409Z,3.70
2022-07-27T00:05:28.026Z,3.90
2022-07-27T00:08:03.733Z,3.73
2022-07-27T00:10:41.665Z,4.00
2022-07-27T00:13:12.694Z,4.20
2022-07-27T00:15:49.331Z,3.40
2022-07-27T00:18:20.986Z,3.40
2022-07-27T00:20:56.462Z,3.27
2022-07-27T00:23:28.476Z,3.60
2022-07-27T00:26:04.105Z,3.27
2022-07-27T00:28:51.030Z,3.20
2022-07-27T00:31:24.003Z,2.80
2022-07-27T00:33:54.854Z,3.30
2022-07-27T00:36:28.866Z,2.90
2022-07-27T00:39:03.265Z,3.30
2022-07-27T00:41:36.288Z,2.83
2022-07-27T00:44:18.074Z,3.03
2022-07-27T00:46:58.099Z,2.80
2022-07-27T00:49:41.097Z,3.00
2022-07-27T00:52:10.385Z,2.53
2022-07-27T00:54:43.006Z,2.60
2022-07-27T00:57:24.642Z,3.40
2022-07-27T01:00:02.816Z,3.07
2022-07-27T01:02:45.712Z,2.63
2022-07-27T01:05:37.728Z,3.30
2022-07-27T01:08:25.777Z,2.90
2022-07-27T01:10:59.739Z,3.27
2022-07-27T01:13:38.070Z,2.70
2022-07-27T01:16:11.168Z,3.20
2022-07-27T01:18:46.277Z,3.17
2022-07-27T01:21:18.273Z,2.87
2022-07-27T01:23:49.319Z,3.90
2022-07-27T01:26:30.227Z,2.63
2022-07-27T01:29:07.032Z,3.00
2022-07-27T01:31:44.316Z,2.83
2022-07-27T01:34:19.641Z,2.93
2022-07-27T01:36:52.323Z,2.80
2022-07-27T01:39:34.501Z,2.50
2022-07-27T01:42:16.391Z,2.67
2022-07-27T01:45:00.891Z,2.80
2022-07-27T01:47:33.105Z,2.80
2022-07-27T01:50:17.221Z,2.77
2022-07-27T01:52:59.965Z,2.40
2022-07-27T01:55:44.710Z,2.50
2022-07-27T01:58:16.433Z,2.67
2022-07-27T02:00:51.707Z,2.70
2022-07-27T02:03:26.644Z,2.40
2022-07-27T02:06:00.659Z,2.40
2022-07-27T02:08:35.442Z,2.40
2022-07-27T02:11:27.560Z,2.43
2022-07-27T02:14:00.725Z,2.37
2022-07-27T02:16:30.408Z,2.53
2022-07-27T02:19:10.971Z,2.57
2022-07-27T02:21:47.292Z,2.30
2022-07-27T02:24:21.175Z,3.20
2022-07-27T02:26:59.105Z,2.20
2022-07-27T02:29:42.162Z,2.60
2022-07-27T02:32:14.745Z,2.60
2022-07-27T02:34:49.228Z,2.67
2022-07-27T02:37:22.587Z,2.73
2022-07-27T02:40:00.784Z,3.20
2022-07-27T02:42:42.720Z,2.63
2022-07-27T02:45:12.846Z,2.27
2022-07-27T02:47:45.817Z,2.57
2022-07-27T02:50:17.436Z,2.60
2022-07-27T02:52:54.573Z,2.70
2022-07-27T02:55:27.871Z,2.87
2022-07-27T02:58:17.656Z,2.37
2022-07-27T03:00:54.921Z,2.57
2022-07-27T03:03:32.943Z,2.77
2022-07-27T03:06:09.585Z,2.90
2022-07-27T03:08:42.006Z,2.60
2022-07-27T03:11:14.926Z,2.77
2022-07-27T03:13:47.225Z,2.63
2022-07-27T03:16:19.653Z,2.93
2022-07-27T03:19:21.375Z,2.67
2022-07-27T03:21:54.159Z,2.40
2022-07-27T03:24:25.114Z,2.53
2022-07-27T03:27:08.790Z,2.70
2022-07-27T03:29:42.605Z,2.50
2022-07-27T03:32:17.562Z,2.27
2022-07-27T03:34:56.373Z,2.40
2022-07-27T03:37:32.307Z,2.20
2022-07-27T03:40:13.443Z,2.53
2022-07-27T03:42:48.519Z,2.80
2022-07-27T03:45:24.189Z,2.73
2022-07-27T03:47:56.176Z,2.50
2022-07-27T03:50:49.962Z,2.00
2022-07-27T03:53:33.652Z,2.50
2022-07-27T03:56:10.018Z,2.90
2022-07-27T03:58:41.088Z,2.37
2022-07-27T04:01:24.664Z,2.40
2022-07-27T04:04:03.682Z,2.30
2022-07-27T04:06:35.430Z,2.70
2022-07-27T04:09:09.549Z,2.87
2022-07-27T04:11:43.419Z,2.40
2022-07-27T04:14:27.280Z,2.30
2022-07-27T04:17:09.057Z,2.60
2022-07-27T04:19:54.143Z,2.60
2022-07-27T04:22:28.662Z,2.50
2022-07-27T04:25:01.456Z,2.87
2022-07-27T04:27:39.246Z,2.87
2022-07-27T04:30:21.713Z,2.93
2022-07-27T04:32:59.913Z,2.77
2022-07-27T04:35:46.047Z,2.73
2022-07-27T04:38:30.741Z,3.10
2022-07-27T04:41:01.450Z,3.33
2022-07-27T04:43:35.285Z,2.70
2022-07-27T04:46:06.995Z,2.83
2022-07-27T04:48:51.387Z,2.83
2022-07-27T04:51:39.377Z,2.80
2022-07-27T04:54:16.217Z,2.57
2022-07-27T04:56:54.881Z,2.43
2022-07-27T04:59:31.685Z,2.30
2022-07-27T05:02:05.564Z,2.30
2022-07-27T05:04:40.997Z,2.30
2022-07-27T05:07:18.325Z,2.20
2022-07-27T05:10:08.215Z,2.40
2022-07-27T05:12:49.804Z,2.20
2022-07-27T05:15:53.969Z,2.40
2022-07-27T05:18:38.124Z,2.33
2022-07-27T05:23:57.777Z,2.43
2022-07-27T05:26:27.209Z,2.20
2022-07-27T05:29:00.152Z,2.57
2022-07-27T05:31:39.288Z,4.23
2022-07-27T05:34:12.334Z,4.30
2022-07-27T05:37:03.793Z,6.00
2022-07-27T05:39:35.482Z,5.10
2022-07-27T05:42:21.009Z,5.50
2022-07-27T05:45:07.342Z,5.90
2022-07-27T05:47:41.766Z,6.03
2022-07-27T05:50:26.190Z,5.57
2022-07-27T05:53:02.427Z,6.40
2022-07-27T05:55:37.151Z,7.37
2022-07-27T05:58:12.284Z,7.90
2022-07-27T06:00:48.363Z,7.07
2022-07-27T06:03:25.822Z,6.30
2022-07-27T06:06:18.298Z,7.13
2022-07-27T06:08:50.195Z,6.50
2022-07-27T06:11:23.128Z,7.20
2022-07-27T06:14:05.863Z,8.00
2022-07-27T06:16:46.123Z,7.57
2022-07-27T06:19:17.332Z,7.43
2022-07-27T06:21:53.845Z,8.27
2022-07-27T06:24:28.982Z,8.47
2022-07-27T06:27:04.033Z,7.13
2022-07-27T06:29:40.459Z,8.27
2022-07-27T06:32:24.981Z,9.90
2022-07-27T06:35:02.717Z,9.30
2022-07-27T06:37:37.480Z,7.80
2022-07-27T06:40:18.541Z,8.47
2022-07-27T06:42:51.015Z,6.40
2022-07-27T06:45:23.482Z,7.00
2022-07-27T06:47:54.182Z,5.80
2022-07-27T06:50:33.572Z,7.07
2022-07-27T06:53:07.799Z,7.67
2022-07-27T06:55:55.814Z,7.40
2022-07-27T06:58:28.969Z,4.53
2022-07-27T07:01:05.518Z,4.90
2022-07-27T07:03:36.517Z,3.90
2022-07-27T07:06:17.164Z,3.83
2022-07-27T07:08:59.332Z,3.83
2022-07-27T07:11:32.389Z,3.60
2022-07-27T07:14:05.254Z,3.47
2022-07-27T07:16:42.305Z,3.83
2022-07-27T07:19:18.467Z,4.23
2022-07-27T07:21:59.158Z,4.13
2022-07-27T07:24:32.665Z,5.10
2022-07-27T07:27:04.421Z,4.83
2022-07-27T07:29:46.032Z,5.30
2022-07-27T07:32:23.319Z,4.67
2022-07-27T07:35:01.591Z,4.63
2022-07-27T07:37:40.423Z,4.03
2022-07-27T07:43:31.261Z,3.93
2022-07-27T07:46:05.820Z,6.13
2022-07-27T07:48:39.866Z,4.57
2022-07-27T07:51:13.596Z,4.70
2022-07-27T07:53:50.406Z,4.80
2022-07-27T07:56:28.931Z,5.97
2022-07-27T07:59:05.066Z,6.10
2022-07-27T08:01:44.578Z,5.67
2022-07-27T08:04:19.765Z,4.90
2022-07-27T08:07:02.062Z,5.77
2022-07-27T08:09:35.183Z,6.33
2022-07-27T08:12:09.039Z,5.87
2022-07-27T08:14:56.549Z,5.17
2022-07-27T08:17:32.521Z,5.30
2022-07-27T08:20:03.708Z,5.47
2022-07-27T08:22:35.702Z,4.83
2022-07-27T08:25:20.033Z,5.90
2022-07-27T08:27:58.542Z,5.73
2022-07-27T08:30:33.937Z,5.70
2022-07-27T08:33:09.369Z,6.17
2022-07-27T08:35:44.947Z,5.13
2022-07-27T08:38:17.742Z,4.50
2022-07-27T08:40:51.157Z,6.13
2022-07-27T08:43:25.142Z,5.23
2022-07-27T08:46:06.525Z,5.83
2022-07-27T08:48:42.700Z,5.77
2022-07-27T08:51:15.135Z,5.13
2022-07-27T08:56:36.246Z,5.70
2022-07-27T08:59:14.237Z,6.03
2022-07-27T09:01:50.994Z,6.40
2022-07-27T09:04:24.037Z,6.10
2022-07-27T09:07:02.900Z,6.43
2022-07-27T09:09:51.252Z,5.53
2022-07-27T09:12:40.439Z,6.40
2022-07-27T09:15:17.236Z,6.23
2022-07-27T09:18:03.346Z,5.50
2022-07-27T09:20:35.908Z,5.17
2022-07-27T09:23:14.675Z,5.07
2022-07-27T09:26:02.799Z,6.17
2022-07-27T09:28:38.828Z,5.70
2022-07-27T09:31:16.207Z,6.47
2022-07-27T09:34:12.071Z,5.63
2022-07-27T09:37:00.329Z,5.10
2022-07-27T09:39:41.418Z,5.33
2022-07-27T09:43:05.550Z,4.57
2022-07-27T09:45:34.081Z,5.47
2022-07-27T09:48:18.119Z,5.90
2022-07-27T09:51:57.738Z,5.13
2022-07-27T09:54:15.675Z,5.47
2022-07-27T09:57:11.891Z,5.20
2022-07-27T09:59:59.894Z,5.47
2022-07-27T10:02:30.837Z,5.80
2022-07-27T10:05:12.950Z,5.23
2022-07-27T10:08:02.183Z,5.30
2022-07-27T10:10:39.765Z,5.10
2022-07-27T10:13:16.223Z,4.90
2022-07-27T10:15:54.566Z,4.70
2022-07-27T10:18:50.757Z,5.53
2022-07-27T10:21:31.257Z,5.60
2022-07-27T10:24:09.901Z,5.07
2022-07-27T10:27:32.227Z,5.07
2022-07-27T10:30:07.897Z,5.80
2022-07-27T10:32:45.100Z,5.73
2022-07-27T10:35:47.358Z,5.33
2022-07-27T10:38:23.339Z,5.90
2022-07-27T10:41:29.834Z,4.87
2022-07-27T10:44:35.291Z,5.77
2022-07-27T10:47:11.985Z,6.50
2022-07-27T10:49:44.610Z,5.40
2022-07-27T10:52:45.392Z,5.77
2022-07-27T10:56:03.374Z,5.10
2022-07-27T10:58:59.766Z,4.50
2022-07-27T11:01:29.298Z,4.97
2022-07-27T11:04:14.547Z,5.30
2022-07-27T11:10:04.983Z,5.60
2022-07-27T11:12:38.192Z,5.30
2022-07-27T11:15:14.002Z,5.90
2022-07-27T11:18:04.298Z,4.70
2022-07-27T11:23:50.468Z,7.07
2022-07-27T11:26:29.739Z,5.30
2022-07-27T11:29:14.332Z,5.30
2022-07-27T11:31:58.268Z,5.00
2022-07-27T11:34:37.481Z,5.30
2022-07-27T11:37:21.527Z,4.90
2022-07-27T11:40:20.066Z,5.83
2022-07-27T11:43:00.514Z,5.40
2022-07-27T11:45:31.346Z,4.97
2022-07-27T11:48:13.354Z,8.17
2022-07-27T11:51:01.589Z,7.37
2022-07-27T11:53:46.632Z,4.90
2022-07-27T11:56:36.731Z,2.90
2022-07-27T11:59:17.960Z,3.07
2022-07-27T12:02:03.083Z,3.33
2022-07-27T12:04:40.553Z,2.60
2022-07-27T12:07:22.955Z,3.10
2022-07-27T12:10:04.810Z,3.10
2022-07-27T12:12:39.647Z,2.80
2022-07-27T12:18:15.363Z,2.93
2022-07-27T12:21:01.378Z,2.63
2022-07-27T12:23:38.273Z,2.73
2022-07-27T12:26:19.383Z,3.13
2022-07-27T12:29:13.267Z,2.70
2022-07-27T12:32:00.649Z,3.60
2022-07-27T12:34:43.193Z,4.37
2022-07-27T12:37:26.974Z,2.77
2022-07-27T12:40:00.324Z,2.90
2022-07-27T12:42:39.486Z,2.47
2022-07-27T12:45:19.075Z,3.17
2022-07-27T12:47:52.537Z,3.20
2022-07-27T12:51:05.052Z,3.73
2022-07-27T12:53:40.918Z,3.67
2022-07-27T12:56:26.996Z,2.90
2022-07-27T12:59:09.019Z,5.00
2022-07-27T13:01:46.802Z,4.17
2022-07-27T13:04:25.351Z,3.70
2022-07-27T13:06:57.475Z,3.70
2022-07-27T13:10:02.083Z,3.43
2022-07-27T13:12:44.826Z,3.93
2022-07-27T13:15:26.399Z,3.30
2022-07-27T13:18:00.578Z,3.60
2022-07-27T13:20:42.601Z,2.93
2022-07-27T13:23:20.436Z,3.40
2022-07-27T13:26:02.597Z,3.10
2022-07-27T13:28:39.464Z,3.00
2022-07-27T13:31:15.966Z,2.90
2022-07-27T13:34:01.042Z,2.60
2022-07-27T13:36:44.368Z,2.77
2022-07-27T13:39:18.993Z,3.07
2022-07-27T13:45:09.713Z,3.60
2022-07-27T13:47:51.638Z,3.40
2022-07-27T13:50:23.863Z,3.43
2022-07-27T13:53:01.846Z,3.67
2022-07-27T13:55:38.963Z,3.70
2022-07-27T13:58:13.226Z,3.27
2022-07-27T14:00:47.052Z,3.43
2022-07-27T14:03:23.230Z,3.57
2022-07-27T14:05:55.243Z,3.33
2022-07-27T14:08:30.752Z,3.53
2022-07-27T15:16:22.792Z,3.37
2022-07-27T15:18:55.397Z,3.40
2022-07-27T15:21:25.759Z,3.27
2022-07-27T15:24:08.294Z,2.80
2022-07-27T15:26:37.772Z,3.20
2022-07-27T15:29:14.869Z,2.90
2022-07-27T15:31:47.663Z,3.67
2022-07-27T15:34:18.213Z,3.00
2022-07-27T15:36:52.049Z,2.47
2022-07-27T15:39:23.102Z,3.00
2022-07-27T15:42:00.295Z,2.50
2022-07-27T15:44:29.877Z,2.70
2022-07-27T15:47:02.482Z,2.63
2022-07-27T15:49:31.040Z,2.80
2022-07-27T15:52:01.597Z,2.43
2022-07-27T15:54:42.158Z,2.27
2022-07-27T15:57:16.896Z,2.23
2022-07-27T15:59:45.276Z,2.50
2022-07-27T16:02:15.654Z,2.70
2022-07-27T16:04:52.816Z,3.27
2022-07-27T16:07:21.140Z,2.40
2022-07-27T16:09:49.350Z,2.87
2022-07-27T16:12:19.561Z,2.60
2022-07-27T16:14:48.342Z,2.80
2022-07-27T16:17:19.542Z,2.53
2022-07-27T16:19:47.839Z,3.00
2022-07-27T16:22:16.079Z,3.67
2022-07-27T16:24:44.695Z,3.50
2022-07-27T16:27:12.904Z,3.10
2022-07-27T16:29:41.171Z,3.00
2022-07-27T16:32:09.515Z,3.63
2022-07-27T16:34:39.559Z,2.90
2022-07-27T16:37:08.053Z,3.30
2022-07-27T16:39:36.529Z,3.37
2022-07-27T16:42:05.370Z,3.00
2022-07-27T16:44:33.529Z,3.37
2022-07-27T16:47:01.863Z,3.47
2022-07-27T16:49:33.776Z,4.60
2022-07-27T16:52:07.297Z,4.27
2022-07-27T16:54:39.335Z,3.73
2022-07-27T16:57:08.039Z,3.70
2022-07-27T16:59:39.118Z,3.00
2022-07-27T17:02:07.787Z,3.50
2022-07-27T17:04:36.038Z,3.30
2022-07-27T17:07:04.898Z,2.90
2022-07-27T17:09:35.021Z,3.17
2022-07-27T17:12:03.542Z,2.43
2022-07-27T17:14:31.923Z,2.90
2022-07-27T17:17:00.461Z,2.90
2022-07-27T17:19:28.780Z,2.60
2022-07-27T17:21:57.344Z,2.40
2022-07-27T17:24:25.696Z,2.70
2022-07-27T17:26:55.273Z,2.90
2022-07-27T17:29:23.630Z,3.17
2022-07-27T17:31:52.988Z,2.70
2022-07-27T17:34:21.677Z,3.57
2022-07-27T17:36:50.557Z,3.43
2022-07-27T17:39:19.307Z,3.70
2022-07-27T17:41:47.699Z,3.07
2022-07-27T17:44:17.229Z,3.13
2022-07-27T17:46:45.491Z,2.97
2022-07-27T17:49:14.339Z,2.70
2022-07-27T17:51:42.897Z,3.27
2022-07-27T17:54:11.720Z,3.40
2022-07-27T17:56:39.948Z,3.00
2022-07-27T17:59:34.512Z,2.90
2022-07-27T18:01:59.765Z,3.40
2022-07-27T18:04:29.790Z,2.90
2022-07-27T18:07:01.294Z,3.03
2022-07-27T18:09:33.617Z,3.00
2022-07-27T18:12:01.968Z,2.63
2022-07-27T18:14:30.318Z,2.47
2022-07-27T18:17:00.729Z,3.03
2022-07-27T18:19:38.698Z,2.40
2022-07-27T18:22:13.838Z,2.60
2022-07-27T18:24:42.306Z,2.10
2022-07-27T18:27:10.597Z,2.90
2022-07-27T18:29:39.040Z,2.60
2022-07-27T18:32:08.980Z,2.20
2022-07-27T18:34:37.429Z,3.00
2022-07-27T18:37:05.705Z,3.00
2022-07-27T18:39:34.206Z,2.83
2022-07-27T18:42:04.013Z,2.80
2022-07-27T18:44:38.420Z,3.20
2022-07-27T18:47:09.023Z,2.80
2022-07-27T18:49:38.080Z,3.00
2022-07-27T18:52:07.009Z,3.40
2022-07-27T18:54:35.353Z,4.33
2022-07-27T18:57:03.491Z,4.37
2022-07-27T18:59:31.808Z,3.53
2022-07-27T19:02:00.490Z,4.30
2022-07-27T19:04:30.346Z,2.90
2022-07-27T19:06:58.739Z,3.43
2022-07-27T19:09:28.133Z,3.87
2022-07-27T19:11:56.382Z,4.83
2022-07-27T19:14:24.709Z,4.47
2022-07-27T19:16:54.532Z,4.27
2022-07-27T19:19:23.746Z,5.00
2022-07-27T19:21:53.612Z,5.37
2022-07-27T19:24:23.632Z,4.87
2022-07-27T19:26:52.175Z,5.77
2022-07-27T19:29:22.859Z,5.93
2022-07-27T19:31:51.727Z,5.40
2022-07-27T19:34:20.363Z,5.67
2022-07-27T19:36:48.841Z,5.70
2022-07-27T19:39:18.771Z,5.90
2022-07-27T19:41:47.113Z,5.50
2022-07-27T19:44:20.403Z,6.33
2022-07-27T19:46:50.634Z,6.27
2022-07-27T19:49:19.344Z,5.73
2022-07-27T19:51:47.812Z,5.47
2022-07-27T19:54:16.079Z,6.00
2022-07-27T19:56:45.697Z,5.30
2022-07-27T19:59:16.141Z,5.70
2022-07-27T20:01:44.790Z,4.90
2022-07-27T20:04:12.944Z,5.90
2022-07-27T20:06:41.244Z,5.80
2022-07-27T20:09:09.848Z,5.60
2022-07-27T20:11:38.643Z,5.40
2022-07-27T20:14:08.205Z,5.30
2022-07-27T20:16:38.211Z,4.97
2022-07-27T20:19:06.835Z,5.20
2022-07-27T20:21:39.239Z,4.70
2022-07-27T20:24:08.136Z,4.60
2022-07-27T20:26:36.418Z,4.40
2022-07-27T20:29:04.893Z,4.70
2022-07-27T20:31:34.956Z,4.10
2022-07-27T20:34:03.134Z,4.43
2022-07-27T20:36:31.861Z,4.70
2022-07-27T20:39:00.299Z,5.10
2022-07-27T20:41:28.723Z,4.73
2022-07-27T20:43:59.192Z,4.20
2022-07-27T20:46:27.417Z,3.80
2022-07-27T20:48:57.396Z,4.13
2022-07-27T20:51:28.284Z,3.43
2022-07-27T20:53:57.438Z,3.73
2022-07-27T20:56:25.925Z,3.77
2022-07-27T20:58:54.293Z,4.60
2022-07-27T21:01:22.683Z,4.20
2022-07-27T21:03:50.954Z,4.40
2022-07-27T21:06:20.768Z,3.83
2022-07-27T21:08:49.101Z,3.80
2022-07-27T21:11:17.521Z,4.00
2022-07-27T21:13:45.955Z,3.73
2022-07-27T21:16:14.377Z,4.40
2022-07-27T21:18:42.837Z,3.60
2022-07-27T21:21:12.101Z,3.73
2022-07-27T21:23:59.125Z,3.83
2022-07-27T21:26:27.816Z,3.57
2022-07-27T21:28:57.835Z,4.20
2022-07-27T21:31:26.175Z,4.00
2022-07-27T21:35:39.874Z,4.00
2022-07-27T21:38:08.095Z,4.53
2022-07-27T21:40:37.311Z,4.43
2022-07-27T21:43:05.728Z,4.60
2022-07-27T21:45:34.311Z,4.00
2022-07-27T21:48:02.654Z,3.80
2022-07-27T21:50:30.871Z,4.17
2022-07-27T21:53:00.917Z,3.80
2022-07-27T21:55:29.220Z,3.80
2022-07-27T21:57:57.456Z,4.60
2022-07-27T22:00:29.469Z,4.10
2022-07-27T22:07:05.011Z,4.80
2022-07-27T22:09:33.210Z,4.40
2022-07-27T22:12:04.370Z,4.20
2022-07-27T22:14:32.686Z,4.00
2022-07-27T22:17:03.187Z,4.33
2022-07-27T22:19:31.659Z,4.47
2022-07-27T22:21:59.806Z,3.73
2022-07-27T22:24:29.771Z,4.50
2022-07-27T22:26:57.982Z,4.30
2022-07-27T22:29:26.121Z,4.33
2022-07-27T22:31:54.425Z,4.17
2022-07-27T22:34:22.677Z,4.17
2022-07-27T22:36:53.418Z,4.67
2022-07-27T22:39:21.712Z,3.70
2022-07-27T22:41:52.392Z,4.57
2022-07-27T22:44:22.030Z,4.17
2022-07-27T22:46:50.914Z,4.37
2022-07-27T22:49:19.427Z,4.73
2022-07-27T22:51:52.908Z,4.50
2022-07-27T22:54:22.759Z,4.73
2022-07-27T22:56:53.427Z,4.60
2022-07-27T22:59:21.825Z,4.63
2022-07-27T23:01:50.133Z,4.30
2022-07-27T23:04:18.780Z,4.90
2022-07-27T23:06:47.507Z,5.13
2022-07-27T23:09:15.790Z,5.10
2022-07-27T23:11:44.214Z,5.13
2022-07-27T23:14:14.492Z,5.03
2022-07-27T23:16:43.813Z,4.70
2022-07-27T23:19:12.032Z,5.30
2022-07-27T23:21:42.185Z,4.37
2022-07-27T23:24:14.199Z,5.47
2022-07-27T23:26:43.348Z,5.43
2022-07-27T23:29:11.454Z,6.27
2022-07-27T23:31:41.096Z,6.03
2022-07-27T23:34:09.602Z,5.30
2022-07-27T23:36:37.747Z,5.43
2022-07-27T23:39:05.893Z,6.10
2022-07-27T23:41:34.205Z,6.30
2022-07-27T23:44:02.381Z,6.37
2022-07-27T23:46:30.643Z,6.03
2022-07-27T23:49:00.210Z,5.47
2022-07-27T23:51:29.438Z,5.33
2022-07-27T23:53:57.741Z,6.33
2022-07-27T23:56:25.945Z,5.97
2022-07-27T23:58:54.081Z,6.03
